createdAt,value
2023-05-21T00:00:44.542Z,13.70
2023-05-21T00:02:46.673Z,13.69
2023-05-21T00:04:48.445Z,13.68
2023-05-21T00:06:50.114Z,13.68
2023-05-21T00:08:51.779Z,13.67
2023-05-21T00:10:53.371Z,13.66
2023-05-21T00:12:54.913Z,13.63
2023-05-21T00:14:56.529Z,13.63
2023-05-21T00:16:59.786Z,13.62
2023-05-21T00:19:01.748Z,13.61
2023-05-21T00:21:03.715Z,13.60
2023-05-21T00:23:05.519Z,13.61
2023-05-21T00:25:07.709Z,13.60
2023-05-21T00:27:10.348Z,13.60
2023-05-21T00:29:12.222Z,13.58
2023-05-21T00:31:13.963Z,13.59
2023-05-21T00:33:17.001Z,13.59
2023-05-21T00:35:18.624Z,13.58
2023-05-21T00:37:20.439Z,13.57
2023-05-21T00:39:21.988Z,13.57
2023-05-21T00:41:24.017Z,13.55
2023-05-21T00:43:25.682Z,13.54
2023-05-21T00:45:27.382Z,13.53
2023-05-21T00:47:29.081Z,13.52
2023-05-21T00:49:32.871Z,13.49
2023-05-21T00:51:34.495Z,13.48
2023-05-21T00:53:36.889Z,13.47
2023-05-21T00:55:38.806Z,13.45
2023-05-21T00:57:41.478Z,13.43
2023-05-21T00:59:44.278Z,13.42
2023-05-21T01:01:46.269Z,13.40
2023-05-21T01:03:48.013Z,13.39
2023-05-21T01:05:53.968Z,13.39
2023-05-21T01:07:57.484Z,13.37
2023-05-21T01:09:59.436Z,13.36
2023-05-21T01:12:01.934Z,13.34
2023-05-21T01:14:07.900Z,13.33
2023-05-21T01:16:10.533Z,13.32
2023-05-21T01:18:13.341Z,13.31
2023-05-21T01:20:16.231Z,13.29
2023-05-21T01:22:22.068Z,13.29
2023-05-21T01:24:25.372Z,13.28
2023-05-21T01:26:26.967Z,13.28
2023-05-21T01:28:28.544Z,13.28
2023-05-21T01:30:30.475Z,13.28
2023-05-21T01:32:37.930Z,13.27
2023-05-21T01:34:51.106Z,13.27
2023-05-21T01:37:00.050Z,13.25
2023-05-21T01:39:08.204Z,13.25
2023-05-21T01:41:14.164Z,13.26
2023-05-21T01:43:17.390Z,13.25
2023-05-21T01:45:21.047Z,13.26
2023-05-21T01:47:26.132Z,13.26
2023-05-21T01:49:30.422Z,13.26
2023-05-21T01:51:32.631Z,13.26
2023-05-21T01:53:35.053Z,13.26
2023-05-21T01:55:37.015Z,13.25
2023-05-21T01:57:40.176Z,13.25
2023-05-21T01:59:41.853Z,13.26
2023-05-21T02:01:43.527Z,13.26
2023-05-21T02:03:45.239Z,13.26
2023-05-21T02:05:47.228Z,13.25
2023-05-21T02:07:50.380Z,13.26
2023-05-21T02:09:52.285Z,13.26
2023-05-21T02:11:54.139Z,13.28
2023-05-21T02:13:57.519Z,13.30
2023-05-21T02:15:59.259Z,13.30
2023-05-21T02:18:00.922Z,13.31
2023-05-21T02:20:03.533Z,13.32
2023-05-21T02:22:05.373Z,13.34
2023-05-21T02:24:07.151Z,13.35
2023-05-21T02:26:08.965Z,13.36
2023-05-21T02:28:10.627Z,13.37
2023-05-21T02:30:15.917Z,13.38
2023-05-21T02:32:17.500Z,13.39
2023-05-21T02:34:19.229Z,13.39
2023-05-21T02:36:20.836Z,13.39
2023-05-21T02:38:22.648Z,13.41
2023-05-21T02:40:24.511Z,13.42
2023-05-21T02:42:26.472Z,13.43
2023-05-21T02:44:28.305Z,13.44
2023-05-21T02:46:31.404Z,13.45
2023-05-21T02:48:33.229Z,13.45
2023-05-21T02:50:34.916Z,13.47
2023-05-21T02:52:36.605Z,13.49
2023-05-21T02:54:38.294Z,13.50
2023-05-21T02:56:40.079Z,13.51
2023-05-21T02:58:41.682Z,13.52
2023-05-21T03:00:43.334Z,13.54
2023-05-21T03:02:46.932Z,13.54
2023-05-21T03:04:48.618Z,13.56
2023-05-21T03:06:50.360Z,13.58
2023-05-21T03:08:52.042Z,13.58
2023-05-21T03:10:53.665Z,13.59
2023-05-21T03:12:55.498Z,13.60
2023-05-21T03:14:57.093Z,13.60
2023-05-21T03:16:59.029Z,13.61
2023-05-21T03:19:02.234Z,13.61
2023-05-21T03:21:04.558Z,13.62
2023-05-21T03:23:06.318Z,13.61
2023-05-21T03:25:08.899Z,13.63
2023-05-21T03:27:10.584Z,13.63
2023-05-21T03:29:13.630Z,13.65
2023-05-21T03:31:15.623Z,13.66
2023-05-21T03:33:17.363Z,13.67
2023-05-21T03:35:20.520Z,13.69
2023-05-21T03:37:23.679Z,13.69
2023-05-21T03:39:25.573Z,13.71
2023-05-21T03:41:27.429Z,13.73
2023-05-21T03:43:29.002Z,13.73
2023-05-21T03:45:30.770Z,13.74
2023-05-21T03:47:32.477Z,13.75
2023-05-21T03:49:34.251Z,13.80
2023-05-21T03:51:37.258Z,13.82
2023-05-21T03:53:38.866Z,13.83
2023-05-21T03:55:40.587Z,13.85
2023-05-21T03:57:42.919Z,13.87
2023-05-21T03:59:44.536Z,13.88
2023-05-21T04:01:46.256Z,13.90
2023-05-21T04:03:48.181Z,13.92
2023-05-21T04:05:50.057Z,13.94
2023-05-21T04:07:53.198Z,13.95
2023-05-21T04:09:55.093Z,13.99
2023-05-21T04:11:57.243Z,14.02
2023-05-21T04:13:58.876Z,14.05
2023-05-21T04:16:00.521Z,14.09
2023-05-21T04:18:02.352Z,14.13
2023-05-21T04:20:04.659Z,14.17
2023-05-21T04:22:06.619Z,14.20
2023-05-21T04:24:09.642Z,14.26
2023-05-21T04:26:11.322Z,14.29
2023-05-21T04:28:12.927Z,14.33
2023-05-21T04:30:14.684Z,14.37
2023-05-21T04:32:16.259Z,14.43
2023-05-21T04:34:18.269Z,14.48
2023-05-21T04:36:19.884Z,14.53
2023-05-21T04:38:21.703Z,14.59
2023-05-21T04:40:25.130Z,14.63
2023-05-21T04:42:26.922Z,14.70
2023-05-21T04:44:28.687Z,14.75
2023-05-21T04:46:30.884Z,14.82
2023-05-21T04:48:32.660Z,14.88
2023-05-21T04:50:34.632Z,14.94
2023-05-21T04:52:36.353Z,15.01
2023-05-21T04:54:38.018Z,15.08
2023-05-21T04:56:49.028Z,15.17
2023-05-21T04:58:51.253Z,15.23
2023-05-21T05:00:52.862Z,15.30
2023-05-21T05:02:54.618Z,15.38
2023-05-21T05:04:56.320Z,15.42
2023-05-21T05:06:57.999Z,15.50
2023-05-21T05:08:59.596Z,15.57
2023-05-21T05:11:01.270Z,15.65
2023-05-21T05:13:04.211Z,15.71
2023-05-21T05:15:07.078Z,15.78
2023-05-21T05:17:08.680Z,15.85
2023-05-21T05:19:10.475Z,15.91
2023-05-21T05:21:12.137Z,16.00
2023-05-21T05:23:14.275Z,16.04
2023-05-21T05:25:15.896Z,16.13
2023-05-21T05:27:17.509Z,16.19
2023-05-21T05:29:21.141Z,16.26
2023-05-21T05:31:23.099Z,16.32
2023-05-21T05:33:25.042Z,16.35
2023-05-21T05:35:26.850Z,16.43
2023-05-21T05:37:28.583Z,16.47
2023-05-21T05:39:30.268Z,16.53
2023-05-21T05:41:32.851Z,16.57
2023-05-21T05:43:34.778Z,16.66
2023-05-21T05:45:38.292Z,16.73
2023-05-21T05:47:40.465Z,16.80
2023-05-21T05:49:42.133Z,16.87
2023-05-21T05:51:43.950Z,16.96
2023-05-21T05:53:45.563Z,17.03
2023-05-21T05:55:47.687Z,17.12
2023-05-21T05:57:50.486Z,17.20
2023-05-21T05:59:52.410Z,17.29
2023-05-21T06:01:55.459Z,17.37
2023-05-21T06:03:57.037Z,17.46
2023-05-21T06:05:58.988Z,17.55
2023-05-21T06:08:00.599Z,17.66
2023-05-21T06:10:02.723Z,17.76
2023-05-21T06:12:05.338Z,17.85
2023-05-21T06:14:07.503Z,17.94
2023-05-21T06:16:09.806Z,18.06
2023-05-21T06:18:12.980Z,18.15
2023-05-21T06:20:16.472Z,18.25
2023-05-21T06:22:18.149Z,18.34
2023-05-21T06:24:19.806Z,18.44
2023-05-21T06:26:21.815Z,18.53
2023-05-21T06:28:23.767Z,18.62
2023-05-21T06:30:25.648Z,18.73
2023-05-21T06:32:27.547Z,18.82
2023-05-21T06:34:30.795Z,18.93
2023-05-21T06:36:32.618Z,19.06
2023-05-21T06:38:34.499Z,19.14
2023-05-21T06:40:36.346Z,19.26
2023-05-21T06:42:38.341Z,19.35
2023-05-21T06:44:40.220Z,19.48
2023-05-21T06:46:42.327Z,19.59
2023-05-21T06:48:45.051Z,19.71
2023-05-21T06:50:48.282Z,19.83
2023-05-21T06:52:49.853Z,19.95
2023-05-21T06:54:51.494Z,20.06
2023-05-21T06:56:53.136Z,20.17
2023-05-21T06:58:54.788Z,20.28
2023-05-21T07:00:56.493Z,20.38
2023-05-21T07:02:58.939Z,20.46
2023-05-21T07:05:00.732Z,20.57
2023-05-21T07:07:04.153Z,20.68
2023-05-21T07:09:06.082Z,20.81
2023-05-21T07:11:07.768Z,20.93
2023-05-21T07:13:09.826Z,21.04
2023-05-21T07:15:11.784Z,21.16
2023-05-21T07:17:13.688Z,21.26
2023-05-21T07:19:15.793Z,21.39
2023-05-21T07:21:17.629Z,21.51
2023-05-21T07:23:20.947Z,21.62
2023-05-21T07:25:22.798Z,21.74
2023-05-21T07:27:26.259Z,21.84
2023-05-21T07:29:28.274Z,21.95
2023-05-21T07:31:30.153Z,22.06
2023-05-21T07:33:31.779Z,22.16
2023-05-21T07:35:33.976Z,22.24
2023-05-21T07:37:35.770Z,22.33
2023-05-21T07:39:38.838Z,22.44
2023-05-21T07:41:40.635Z,22.51
2023-05-21T07:43:42.396Z,22.57
2023-05-21T07:45:44.131Z,22.61
2023-05-21T07:47:47.148Z,22.64
2023-05-21T07:49:49.180Z,22.66
2023-05-21T07:51:51.073Z,22.69
2023-05-21T07:53:55.038Z,22.71
2023-05-21T07:55:58.438Z,22.72
2023-05-21T07:58:00.336Z,22.75
2023-05-21T08:00:02.087Z,22.78
2023-05-21T08:02:03.904Z,22.79
2023-05-21T08:04:06.457Z,22.83
2023-05-21T08:06:10.140Z,22.87
2023-05-21T08:08:11.726Z,22.87
2023-05-21T08:10:13.431Z,22.89
2023-05-21T08:12:16.636Z,22.92
2023-05-21T08:14:18.999Z,22.94
2023-05-21T08:16:21.001Z,22.95
2023-05-21T08:18:26.483Z,22.98
2023-05-21T08:20:28.633Z,23.03
2023-05-21T08:22:30.274Z,23.05
2023-05-21T08:24:32.213Z,23.09
2023-05-21T08:26:34.046Z,23.16
2023-05-21T08:28:38.219Z,23.21
2023-05-21T08:30:40.156Z,23.27
2023-05-21T08:32:42.384Z,23.35
2023-05-21T08:34:44.041Z,23.43
2023-05-21T08:36:46.505Z,23.50
2023-05-21T08:38:48.929Z,23.58
2023-05-21T08:40:51.599Z,23.67
2023-05-21T08:42:53.950Z,23.77
2023-05-21T08:45:00.530Z,23.87
2023-05-21T08:47:05.796Z,23.97
2023-05-21T08:49:12.266Z,24.09
2023-05-21T08:51:14.378Z,24.18
2023-05-21T08:53:27.257Z,24.27
2023-05-21T08:55:31.611Z,24.38
2023-05-21T08:57:33.686Z,24.48
2023-05-21T08:59:35.757Z,24.59
2023-05-21T09:01:39.996Z,24.72
2023-05-21T09:03:43.618Z,24.87
2023-05-21T09:05:45.614Z,25.02
2023-05-21T09:07:55.695Z,25.15
2023-05-21T09:09:58.790Z,25.31
2023-05-21T09:12:00.464Z,25.43
2023-05-21T09:14:02.713Z,25.55
2023-05-21T09:16:06.669Z,25.64
2023-05-21T09:18:09.879Z,25.74
2023-05-21T09:20:13.396Z,25.81
2023-05-21T09:22:15.572Z,25.89
2023-05-21T09:24:21.533Z,25.93
2023-05-21T09:26:23.883Z,26.00
2023-05-21T09:28:25.762Z,26.07
2023-05-21T09:30:30.194Z,26.14
2023-05-21T09:32:33.511Z,26.21
2023-05-21T09:34:37.834Z,26.27
2023-05-21T09:36:39.517Z,26.34
2023-05-21T09:38:41.672Z,26.42
2023-05-21T09:40:46.531Z,26.48
2023-05-21T09:42:49.831Z,26.53
2023-05-21T09:44:51.991Z,26.59
2023-05-21T09:46:57.635Z,26.66
2023-05-21T09:48:59.481Z,26.72
2023-05-21T09:51:10.334Z,26.79
2023-05-21T09:53:12.812Z,26.83
2023-05-21T09:55:16.565Z,26.84
2023-05-21T09:57:24.178Z,26.89
2023-05-21T09:59:35.902Z,26.94
2023-05-21T10:01:38.444Z,26.99
2023-05-21T10:03:40.500Z,27.02
2023-05-21T10:05:42.676Z,27.05
2023-05-21T10:07:49.980Z,27.09
2023-05-21T10:09:54.071Z,27.15
2023-05-21T10:11:57.392Z,27.19
2023-05-21T10:14:13.957Z,27.23
2023-05-21T10:16:15.641Z,27.30
2023-05-21T10:18:20.831Z,27.36
2023-05-21T10:20:22.859Z,27.39
2023-05-21T10:22:25.850Z,27.47
2023-05-21T10:24:29.487Z,27.54
2023-05-21T10:26:31.939Z,27.62
2023-05-21T10:28:34.155Z,27.70
2023-05-21T10:30:37.886Z,27.77
2023-05-21T10:32:40.885Z,27.88
2023-05-21T10:34:43.832Z,28.00
2023-05-21T10:36:48.935Z,28.11
2023-05-21T10:38:51.553Z,28.20
2023-05-21T10:40:55.820Z,28.25
2023-05-21T10:43:35.796Z,28.35
2023-05-21T10:45:53.547Z,28.41
2023-05-21T10:48:09.226Z,28.46
2023-05-21T10:50:31.404Z,28.48
2023-05-21T10:52:50.379Z,28.45
2023-05-21T10:55:07.612Z,28.43
2023-05-21T10:57:23.149Z,28.39
2023-05-21T10:59:40.072Z,28.38
2023-05-21T11:01:42.659Z,28.38
2023-05-21T11:03:45.012Z,28.35
2023-05-21T11:05:53.144Z,28.36
2023-05-21T11:07:58.463Z,28.40
2023-05-21T11:10:30.291Z,28.47
2023-05-21T11:12:36.590Z,28.53
2023-05-21T11:14:39.665Z,28.53
2023-05-21T11:16:46.012Z,28.54
2023-05-21T11:19:03.284Z,28.55
2023-05-21T11:21:06.101Z,28.51
2023-05-21T11:23:07.735Z,28.55
2023-05-21T11:25:10.096Z,28.57
2023-05-21T11:27:12.106Z,28.61
2023-05-21T11:29:15.854Z,28.66
2023-05-21T11:31:24.333Z,28.73
2023-05-21T11:33:26.450Z,28.79
2023-05-21T11:35:28.094Z,28.85
2023-05-21T11:37:34.267Z,28.94
2023-05-21T11:39:39.655Z,29.05
2023-05-21T11:41:58.122Z,29.13
2023-05-21T11:44:01.438Z,29.14
2023-05-21T11:46:06.160Z,29.17
2023-05-21T11:48:14.981Z,29.22
2023-05-21T11:50:17.612Z,29.24
2023-05-21T11:52:19.439Z,29.21
2023-05-21T11:54:21.047Z,29.19
2023-05-21T11:56:23.231Z,29.18
2023-05-21T11:58:25.185Z,29.16
2023-05-21T12:00:27.048Z,29.10
2023-05-21T12:02:31.235Z,29.05
2023-05-21T12:04:34.214Z,29.01
2023-05-21T12:06:35.753Z,28.99
2023-05-21T12:08:37.401Z,28.95
2023-05-21T12:10:39.063Z,28.93
2023-05-21T12:12:53.861Z,28.88
2023-05-21T12:14:56.133Z,28.80
2023-05-21T12:16:58.052Z,28.72
2023-05-21T12:19:02.102Z,28.65
2023-05-21T12:21:04.971Z,28.55
2023-05-21T12:23:06.571Z,28.46
2023-05-21T12:25:09.386Z,28.38
2023-05-21T12:27:11.762Z,28.31
2023-05-21T12:29:14.291Z,28.22
2023-05-21T12:31:15.995Z,28.14
2023-05-21T12:33:18.856Z,28.03
2023-05-21T12:35:25.563Z,27.94
2023-05-21T12:37:29.135Z,27.85
2023-05-21T12:39:31.666Z,27.78
2023-05-21T12:41:33.342Z,27.74
2023-05-21T12:43:34.984Z,27.70
2023-05-21T12:45:38.687Z,27.70
2023-05-21T12:47:40.473Z,27.70
2023-05-21T12:49:44.023Z,27.70
2023-05-21T12:51:47.120Z,27.73
2023-05-21T12:53:49.184Z,27.78
2023-05-21T12:55:50.844Z,27.84
2023-05-21T12:58:01.703Z,27.91
2023-05-21T13:00:05.271Z,27.96
2023-05-21T13:02:06.990Z,27.99
2023-05-21T13:04:10.047Z,28.00
2023-05-21T13:06:13.220Z,27.98
2023-05-21T13:08:16.365Z,27.98
2023-05-21T13:10:18.519Z,27.98
2023-05-21T13:12:21.798Z,28.00
2023-05-21T13:14:23.764Z,28.02
2023-05-21T13:16:25.550Z,28.06
2023-05-21T13:18:27.309Z,28.09
2023-05-21T13:20:29.285Z,28.11
2023-05-21T13:22:31.131Z,28.13
2023-05-21T13:24:34.617Z,28.14
2023-05-21T13:26:36.539Z,28.18
2023-05-21T13:28:39.487Z,28.26
2023-05-21T13:30:41.939Z,28.38
2023-05-21T13:32:44.399Z,28.47
2023-05-21T13:34:46.463Z,28.56
2023-05-21T13:36:48.205Z,28.63
2023-05-21T13:38:49.816Z,28.67
2023-05-21T13:40:52.915Z,28.67
2023-05-21T13:42:54.609Z,28.68
2023-05-21T13:44:56.255Z,28.68
2023-05-21T13:46:58.234Z,28.64
2023-05-21T13:48:59.978Z,28.65
2023-05-21T13:51:01.933Z,28.66
2023-05-21T13:53:03.821Z,28.66
2023-05-21T13:55:07.024Z,28.65
2023-05-21T13:57:10.450Z,28.62
2023-05-21T13:59:12.016Z,28.60
2023-05-21T14:01:14.122Z,28.58
2023-05-21T14:03:16.090Z,28.56
2023-05-21T14:05:18.188Z,28.53
2023-05-21T14:07:20.164Z,28.52
2023-05-21T14:09:22.170Z,28.51
2023-05-21T14:11:23.873Z,28.50
2023-05-21T14:13:26.764Z,28.51
2023-05-21T14:15:28.461Z,28.49
2023-05-21T14:17:30.129Z,28.48
2023-05-21T14:19:32.272Z,28.48
2023-05-21T14:21:34.123Z,28.50
2023-05-21T14:23:35.767Z,28.52
2023-05-21T14:25:38.045Z,28.56
2023-05-21T14:27:39.921Z,28.61
2023-05-21T14:29:43.146Z,28.64
2023-05-21T14:31:44.956Z,28.68
2023-05-21T14:33:46.720Z,28.69
2023-05-21T14:35:49.135Z,28.71
2023-05-21T14:37:51.252Z,28.70
2023-05-21T14:39:53.112Z,28.66
2023-05-21T14:41:54.797Z,28.61
2023-05-21T14:43:56.432Z,28.52
2023-05-21T14:45:59.505Z,28.45
2023-05-21T14:48:01.749Z,28.35
2023-05-21T14:50:03.688Z,28.25
2023-05-21T14:52:06.027Z,28.15
2023-05-21T14:54:07.852Z,28.07
2023-05-21T14:56:09.933Z,27.98
2023-05-21T14:58:11.888Z,27.90
2023-05-21T15:00:14.517Z,27.85
2023-05-21T15:02:17.855Z,27.82
2023-05-21T15:04:19.796Z,27.79
2023-05-21T15:06:21.491Z,27.74
2023-05-21T15:08:23.189Z,27.71
2023-05-21T15:10:26.172Z,27.71
2023-05-21T15:12:28.223Z,27.67
2023-05-21T15:14:29.897Z,27.62
2023-05-21T15:16:31.854Z,27.57
2023-05-21T15:18:34.973Z,27.49
2023-05-21T15:20:36.675Z,27.40
2023-05-21T15:22:38.389Z,27.31
2023-05-21T15:24:40.257Z,27.25
2023-05-21T15:26:41.962Z,27.18
2023-05-21T15:28:43.669Z,27.12
2023-05-21T15:30:47.995Z,27.04
2023-05-21T15:32:49.702Z,26.95
2023-05-21T15:34:52.845Z,26.90
2023-05-21T15:36:54.487Z,26.85
2023-05-21T15:38:56.154Z,26.80
2023-05-21T15:40:57.790Z,26.74
2023-05-21T15:42:59.438Z,26.71
2023-05-21T15:45:01.484Z,26.68
2023-05-21T15:47:03.731Z,26.62
2023-05-21T15:49:05.451Z,26.58
2023-05-21T15:51:08.424Z,26.50
2023-05-21T15:53:10.994Z,26.43
2023-05-21T15:55:12.910Z,26.36
2023-05-21T15:57:15.038Z,26.27
2023-05-21T15:59:16.989Z,26.20
2023-05-21T16:01:18.981Z,26.14
2023-05-21T16:03:20.747Z,26.10
2023-05-21T16:05:23.870Z,26.00
2023-05-21T16:07:27.298Z,25.90
2023-05-21T16:09:31.084Z,25.80
2023-05-21T16:11:33.344Z,25.67
2023-05-21T16:13:35.035Z,25.56
2023-05-21T16:15:37.041Z,25.47
2023-05-21T16:17:39.125Z,25.39
2023-05-21T16:19:40.681Z,25.30
2023-05-21T16:21:42.499Z,25.21
2023-05-21T16:23:46.027Z,25.17
2023-05-21T16:25:47.858Z,25.11
2023-05-21T16:27:52.664Z,25.08
2023-05-21T16:29:56.489Z,25.05
2023-05-21T16:31:58.177Z,24.97
2023-05-21T16:33:59.868Z,24.91
2023-05-21T16:36:01.790Z,24.86
2023-05-21T16:38:03.589Z,24.80
2023-05-21T16:40:08.421Z,24.71
2023-05-21T16:42:10.573Z,24.64
2023-05-21T16:44:12.431Z,24.54
2023-05-21T16:46:15.338Z,24.48
2023-05-21T16:48:17.263Z,24.40
2023-05-21T16:50:21.185Z,24.29
2023-05-21T16:52:24.083Z,24.22
2023-05-21T16:54:27.058Z,24.16
2023-05-21T16:56:31.379Z,24.11
2023-05-21T16:58:33.438Z,24.06
2023-05-21T17:00:35.770Z,24.00
2023-05-21T17:02:38.468Z,23.94
2023-05-21T17:04:40.117Z,23.89
2023-05-21T17:06:41.793Z,23.85
2023-05-21T17:08:43.344Z,23.83
2023-05-21T17:10:45.124Z,23.76
2023-05-21T17:12:48.192Z,23.69
2023-05-21T17:14:49.936Z,23.62
2023-05-21T17:16:53.748Z,23.58
2023-05-21T17:18:55.743Z,23.53
2023-05-21T17:20:58.228Z,23.50
2023-05-21T17:22:59.909Z,23.45
2023-05-21T17:25:01.591Z,23.43
2023-05-21T17:27:03.798Z,23.38
2023-05-21T17:29:07.011Z,23.35
2023-05-21T17:31:09.197Z,23.33
2023-05-21T17:33:11.160Z,23.27
2023-05-21T17:35:13.120Z,23.22
2023-05-21T17:37:17.379Z,23.16
2023-05-21T17:39:19.492Z,23.10
2023-05-21T17:41:21.510Z,23.05
2023-05-21T17:43:25.569Z,23.00
2023-05-21T17:45:28.543Z,22.94
2023-05-21T17:47:30.159Z,22.90
2023-05-21T17:49:32.013Z,22.83
2023-05-21T17:51:33.936Z,22.76
2023-05-21T17:53:35.534Z,22.71
2023-05-21T17:55:37.410Z,22.65
2023-05-21T17:57:40.874Z,22.61
2023-05-21T17:59:42.723Z,22.55
2023-05-21T18:01:46.237Z,22.50
2023-05-21T18:03:47.878Z,22.45
2023-05-21T18:05:49.730Z,22.39
2023-05-21T18:07:51.394Z,22.35
2023-05-21T18:09:53.060Z,22.31
2023-05-21T18:11:54.876Z,22.24
2023-05-21T18:13:57.445Z,22.21
2023-05-21T18:15:59.191Z,22.16
2023-05-21T18:18:02.701Z,22.08
2023-05-21T18:20:05.400Z,22.01
2023-05-21T18:22:07.902Z,21.97
2023-05-21T18:24:09.601Z,21.92
2023-05-21T18:26:11.485Z,21.87
2023-05-21T18:28:13.410Z,21.82
2023-05-21T18:32:17.103Z,21.69
2023-05-21T18:34:20.727Z,21.64
2023-05-21T18:36:22.581Z,21.60
2023-05-21T18:38:24.389Z,21.56
2023-05-21T18:40:26.765Z,21.51
2023-05-21T18:42:29.567Z,21.46
2023-05-21T18:44:31.102Z,21.39
2023-05-21T18:46:33.460Z,21.33
2023-05-21T18:48:35.221Z,21.27
2023-05-21T18:50:38.713Z,21.21
2023-05-21T18:52:41.014Z,21.16
2023-05-21T18:54:42.591Z,21.11
2023-05-21T18:56:44.305Z,21.06
2023-05-21T18:58:45.982Z,21.01
2023-05-21T19:00:47.840Z,20.97
2023-05-21T19:02:49.589Z,20.92
2023-05-21T19:04:51.511Z,20.84
2023-05-21T19:06:54.808Z,20.77
2023-05-21T19:08:56.370Z,20.71
2023-05-21T19:10:58.273Z,20.66
2023-05-21T19:12:59.866Z,20.61
2023-05-21T19:15:01.965Z,20.54
2023-05-21T19:17:04.282Z,20.48
2023-05-21T19:19:07.225Z,20.41
2023-05-21T19:21:08.871Z,20.37
2023-05-21T19:23:11.895Z,20.31
2023-05-21T19:25:13.986Z,20.29
2023-05-21T19:27:15.879Z,20.26
2023-05-21T19:29:17.471Z,20.23
2023-05-21T19:31:19.626Z,20.20
2023-05-21T19:33:21.350Z,20.15
2023-05-21T19:35:23.234Z,20.11
2023-05-21T19:37:25.145Z,20.08
2023-05-21T19:39:30.685Z,20.05
2023-05-21T19:41:32.390Z,20.02
2023-05-21T19:43:35.072Z,19.98
2023-05-21T19:45:36.944Z,19.97
2023-05-21T19:47:38.652Z,19.92
2023-05-21T19:49:40.305Z,19.88
2023-05-21T19:51:42.148Z,19.86
2023-05-21T19:53:44.035Z,19.84
2023-05-21T19:55:47.434Z,19.79
2023-05-21T19:57:49.106Z,19.77
2023-05-21T19:59:50.729Z,19.74
2023-05-21T20:01:52.381Z,19.73
2023-05-21T20:03:53.957Z,19.70
2023-05-21T20:05:55.596Z,19.68
2023-05-21T20:07:58.810Z,19.66
2023-05-21T20:10:02.734Z,19.65
2023-05-21T20:12:06.885Z,19.62
2023-05-21T20:14:08.483Z,19.61
2023-05-21T20:16:10.185Z,19.58
2023-05-21T20:18:12.145Z,19.57
2023-05-21T20:20:14.262Z,19.54
2023-05-21T20:22:15.934Z,19.50
2023-05-21T20:24:17.556Z,19.48
2023-05-21T20:26:19.394Z,19.46
2023-05-21T20:28:23.082Z,19.43
2023-05-21T20:30:31.979Z,19.41
2023-05-21T20:32:34.082Z,19.39
2023-05-21T20:34:36.015Z,19.36
2023-05-21T20:36:38.245Z,19.34
2023-05-21T20:38:39.851Z,19.32
2023-05-21T20:40:42.176Z,19.29
2023-05-21T20:42:43.799Z,19.27
2023-05-21T20:44:46.814Z,19.25
2023-05-21T20:46:48.636Z,19.23
2023-05-21T20:48:50.342Z,19.21
2023-05-21T20:50:52.179Z,19.18
2023-05-21T20:52:53.799Z,19.16
2023-05-21T20:54:55.707Z,19.14
2023-05-21T20:56:57.332Z,19.12
2023-05-21T20:58:58.988Z,19.10
2023-05-21T21:01:02.395Z,19.08
2023-05-21T21:03:04.331Z,19.06
2023-05-21T21:05:06.919Z,19.04
2023-05-21T21:07:08.769Z,19.02
2023-05-21T21:09:10.650Z,18.99
2023-05-21T21:11:12.917Z,18.95
2023-05-21T21:13:15.001Z,18.93
2023-05-21T21:15:16.619Z,18.91
2023-05-21T21:17:19.838Z,18.89
2023-05-21T21:19:21.573Z,18.87
2023-05-21T21:21:23.312Z,18.85
2023-05-21T21:23:25.474Z,18.83
2023-05-21T21:25:27.034Z,18.81
2023-05-21T21:27:28.862Z,18.78
2023-05-21T21:29:30.732Z,18.78
2023-05-21T21:31:32.373Z,18.77
2023-05-21T21:33:35.456Z,18.75
2023-05-21T21:35:39.798Z,18.74
2023-05-21T21:37:41.699Z,18.73
2023-05-21T21:39:43.539Z,18.73
2023-05-21T21:41:45.495Z,18.71
2023-05-21T21:43:47.159Z,18.68
2023-05-21T21:45:49.700Z,18.66
2023-05-21T21:47:51.355Z,18.62
2023-05-21T21:49:54.605Z,18.58
2023-05-21T21:51:56.500Z,18.54
2023-05-21T21:53:59.900Z,18.50
2023-05-21T21:56:01.785Z,18.44
2023-05-21T21:58:03.479Z,18.41
2023-05-21T22:00:06.189Z,18.35
2023-05-21T22:02:08.505Z,18.30
2023-05-21T22:04:10.125Z,18.24
2023-05-21T22:06:13.336Z,18.21
2023-05-21T22:08:15.006Z,18.16
2023-05-21T22:10:17.982Z,18.12
2023-05-21T22:12:19.655Z,18.08
2023-05-21T22:14:21.286Z,18.04
2023-05-21T22:16:23.020Z,17.99
2023-05-21T22:18:38.874Z,17.94
2023-05-21T22:20:41.878Z,17.89
2023-05-21T22:22:45.168Z,17.84
2023-05-21T22:24:46.842Z,17.82
2023-05-21T22:26:48.536Z,17.80
2023-05-21T22:28:50.708Z,17.77
2023-05-21T22:30:52.330Z,17.75
2023-05-21T22:32:54.236Z,17.75
2023-05-21T22:34:56.141Z,17.72
2023-05-21T22:36:57.993Z,17.71
2023-05-21T22:39:01.033Z,17.70
2023-05-21T22:41:02.868Z,17.68
2023-05-21T22:43:04.976Z,17.64
2023-05-21T22:45:08.108Z,17.62
2023-05-21T22:47:09.837Z,17.58
2023-05-21T22:49:11.533Z,17.53
2023-05-21T22:51:13.278Z,17.51
2023-05-21T22:53:15.047Z,17.50
2023-05-21T22:55:18.208Z,17.47
2023-05-21T22:57:20.583Z,17.44
2023-05-21T22:59:22.198Z,17.42
2023-05-21T23:01:24.286Z,17.39
2023-05-21T23:03:26.038Z,17.35
2023-05-21T23:05:27.905Z,17.33
2023-05-21T23:07:29.624Z,17.30
2023-05-21T23:09:31.281Z,17.27
2023-05-21T23:11:34.873Z,17.25
2023-05-21T23:13:38.879Z,17.22
2023-05-21T23:15:42.270Z,17.21
2023-05-21T23:17:44.166Z,17.19
2023-05-21T23:19:46.083Z,17.18
2023-05-21T23:21:47.921Z,17.18
2023-05-21T23:23:49.570Z,17.17
2023-05-21T23:25:51.220Z,17.16
2023-05-21T23:27:54.879Z,17.15
2023-05-21T23:29:56.721Z,17.13
2023-05-21T23:31:58.474Z,17.12
2023-05-21T23:34:00.813Z,17.10
2023-05-21T23:36:02.873Z,17.09
2023-05-21T23:38:04.544Z,17.06
2023-05-21T23:40:08.578Z,17.02
2023-05-21T23:42:10.478Z,16.98
2023-05-21T23:44:13.868Z,16.99
2023-05-21T23:46:16.149Z,16.97
2023-05-21T23:48:18.115Z,16.94
2023-05-21T23:50:20.182Z,16.96
2023-05-21T23:52:21.818Z,16.93
2023-05-21T23:54:23.631Z,16.92
2023-05-21T23:56:25.612Z,16.91
2023-05-21T23:58:27.490Z,16.89
